createdAt,value
2022-11-07T00:06:49.297Z,1015.01
2022-11-07T00:16:49.326Z,1015.15
2022-11-07T00:26:49.652Z,1015.32
2022-11-07T00:36:49.673Z,1015.43
2022-11-07T00:46:49.891Z,1015.43
2022-11-07T00:56:49.923Z,1015.59
2022-11-07T01:06:50.237Z,1015.79
2022-11-07T01:16:50.276Z,1015.77
2022-11-07T01:26:50.599Z,1015.69
2022-11-07T01:36:50.619Z,1015.80
2022-11-07T01:46:50.956Z,1015.81
2022-11-07T01:56:50.977Z,1015.91
2022-11-07T02:06:51.291Z,1016.11
2022-11-07T02:16:51.322Z,1015.97
2022-11-07T02:26:51.646Z,1015.98
2022-11-07T02:36:51.679Z,1015.93
2022-11-07T02:46:51.992Z,1015.82
2022-11-07T02:56:52.030Z,1015.89
2022-11-07T03:06:52.347Z,1015.91
2022-11-07T03:16:52.380Z,1015.84
2022-11-07T03:26:52.692Z,1015.81
2022-11-07T03:36:52.716Z,1015.78
2022-11-07T03:46:53.244Z,1015.82
2022-11-07T03:56:53.075Z,1015.89
2022-11-07T04:06:53.402Z,1016.02
2022-11-07T04:16:53.429Z,1016.06
2022-11-07T04:26:53.746Z,1016.25
2022-11-07T04:36:53.783Z,1016.25
2022-11-07T04:46:54.090Z,1016.29
2022-11-07T04:56:54.117Z,1016.39
2022-11-07T05:06:54.446Z,1016.37
2022-11-07T05:16:54.477Z,1016.39
2022-11-07T05:26:54.799Z,1016.49
2022-11-07T05:36:54.823Z,1016.54
2022-11-07T05:46:55.163Z,1016.63
2022-11-07T05:56:55.209Z,1016.62
2022-11-07T06:06:55.487Z,1016.53
2022-11-07T06:16:55.517Z,1016.66
2022-11-07T06:26:55.848Z,1016.67
2022-11-07T06:37:02.483Z,1016.75
2022-11-07T06:46:57.003Z,1016.88
2022-11-07T06:56:56.475Z,1016.96
2022-11-07T07:06:56.296Z,1017.00
2022-11-07T07:16:56.518Z,1017.10
2022-11-07T07:26:56.544Z,1017.05
2022-11-07T07:36:56.860Z,1017.16
2022-11-07T07:46:56.891Z,1017.21
2022-11-07T07:56:57.218Z,1017.30
2022-11-07T08:06:57.248Z,1017.29
2022-11-07T08:16:57.558Z,1017.26
2022-11-07T08:26:57.609Z,1017.32
2022-11-07T08:36:57.906Z,1017.30
2022-11-07T08:46:57.935Z,1017.23
2022-11-07T08:56:58.261Z,1017.16
2022-11-07T09:06:58.288Z,1017.12
2022-11-07T09:16:58.621Z,1017.04
2022-11-07T09:26:58.657Z,1017.09
2022-11-07T09:36:58.979Z,1016.95
2022-11-07T09:46:59.003Z,1016.97
2022-11-07T09:56:59.305Z,1016.91
2022-11-07T10:06:59.333Z,1016.88
2022-11-07T10:16:59.670Z,1016.80
2022-11-07T10:26:59.682Z,1016.75
2022-11-07T10:37:00.015Z,1016.83
2022-11-07T10:47:00.063Z,1016.73
2022-11-07T10:57:00.371Z,1016.64
2022-11-07T11:07:00.411Z,1016.66
2022-11-07T11:17:00.723Z,1016.42
2022-11-07T11:27:00.786Z,1016.40
2022-11-07T11:37:01.158Z,1016.28
2022-11-07T11:47:01.187Z,1016.18
2022-11-07T11:57:01.501Z,1015.98
2022-11-07T12:07:01.531Z,1015.91
2022-11-07T12:17:01.856Z,1015.87
2022-11-07T12:27:01.928Z,1015.79
2022-11-07T12:37:02.008Z,1015.73
2022-11-07T12:47:02.029Z,1015.72
2022-11-07T12:57:02.356Z,1015.67
2022-11-07T13:07:02.437Z,1015.59
2022-11-07T13:17:02.498Z,1015.40
2022-11-07T13:27:02.719Z,1015.36
2022-11-07T13:37:03.057Z,1015.30
2022-11-07T13:47:03.078Z,1015.23
2022-11-07T13:57:03.408Z,1015.25
2022-11-07T14:07:03.441Z,1015.26
2022-11-07T14:17:03.772Z,1015.32
2022-11-07T14:27:03.829Z,1015.36
2022-11-07T14:37:04.107Z,1015.37
2022-11-07T14:47:04.129Z,1015.39
2022-11-07T14:57:04.450Z,1015.34
2022-11-07T15:07:04.489Z,1015.40
2022-11-07T15:17:04.808Z,1015.39
2022-11-07T15:27:04.836Z,1015.36
2022-11-07T15:37:05.148Z,1015.42
2022-11-07T15:47:05.206Z,1015.40
2022-11-07T15:57:05.506Z,1015.60
2022-11-07T16:07:05.536Z,1015.61
2022-11-07T16:17:06.048Z,1015.73
2022-11-07T16:27:05.922Z,1015.72
2022-11-07T16:37:06.207Z,1015.62
2022-11-07T16:47:06.520Z,1015.70
2022-11-07T16:57:06.785Z,1015.71
2022-11-07T17:07:07.545Z,1015.74
2022-11-07T17:17:06.908Z,1015.83
2022-11-07T17:27:07.051Z,1015.88
2022-11-07T17:37:07.393Z,1015.86
2022-11-07T17:47:07.464Z,1015.83
2022-11-07T17:57:07.848Z,1015.81
2022-11-07T18:07:07.741Z,1015.69
2022-11-07T18:17:08.410Z,1015.81
2022-11-07T18:27:10.624Z,1015.85
2022-11-07T18:37:08.642Z,1015.95
2022-11-07T18:47:08.647Z,1015.91
2022-11-07T18:57:09.012Z,1015.83
2022-11-07T19:07:09.972Z,1015.81
2022-11-07T19:17:09.255Z,1015.86
2022-11-07T19:27:09.196Z,1015.88
2022-11-07T19:37:10.011Z,1015.95
2022-11-07T19:47:09.571Z,1016.00
2022-11-07T19:57:09.839Z,1015.99
2022-11-07T20:07:09.980Z,1015.98
2022-11-07T20:17:10.205Z,1015.95
2022-11-07T20:27:10.215Z,1015.95
2022-11-07T20:37:11.228Z,1015.93
2022-11-07T20:47:10.577Z,1016.00
2022-11-07T20:57:11.471Z,1015.98
2022-11-07T21:07:10.727Z,1015.93
2022-11-07T21:17:15.100Z,1015.94
2022-11-07T21:27:11.039Z,1016.02
2022-11-07T21:37:11.345Z,1016.07
2022-11-07T21:47:11.560Z,1016.07
2022-11-07T21:57:11.692Z,1015.93
2022-11-07T22:07:11.729Z,1015.75
2022-11-07T22:17:12.059Z,1015.65
2022-11-07T22:27:12.085Z,1015.55
2022-11-07T22:37:12.399Z,1015.55
2022-11-07T22:47:12.419Z,1015.46
2022-11-07T22:57:17.572Z,1015.35
2022-11-07T23:07:13.800Z,1015.28
2022-11-07T23:17:13.093Z,1015.30
2022-11-07T23:27:13.180Z,1015.14
2022-11-07T23:37:13.235Z,1015.05
2022-11-07T23:47:13.466Z,1015.06
2022-11-07T23:57:13.799Z,1014.99
